Terminal Aerodrome Forecast
Issued by NWS

Home | Current Version | Previous Version | Text Only | Print | Product List | Glossary On
Versions: 1 2 3 4 5 6 7 8 9 10 11 12 13
000
FTUS43 KJKL 120540
TAFSME
TAF
KSME 120540Z 1206/1306 26007G15KT P6SM BKN200 WS020/24035KT
     FM120900 28009KT P6SM BKN070 WS020/24035KT
     FM121000 29009G17KT P6SM VCSH OVC040
     FM121200 30010G20KT 3SM -SHSN OVC015
     FM121500 30010G20KT P6SM VCSH OVC020
     FM121800 30012G20KT P6SM BKN035
     FM130100 29008KT P6SM SCT250=

USA.gov is the U.S. government's official web portal to all federal, state and local government web resources and services.